createdAt,value
2018-12-20T00:00:43.067Z,32.60
2018-12-20T00:03:12.191Z,33.63
2018-12-20T00:05:41.202Z,32.00
2018-12-20T00:08:10.226Z,31.40
2018-12-20T00:10:39.110Z,31.00
2018-12-20T00:13:08.072Z,29.20
2018-12-20T00:15:37.036Z,30.27
2018-12-20T00:18:06.009Z,32.00
2018-12-20T00:20:35.117Z,31.63
2018-12-20T00:23:04.052Z,29.70
2018-12-20T00:25:34.141Z,30.57
2018-12-20T00:28:03.187Z,31.43
2018-12-20T00:30:33.561Z,31.20
2018-12-20T00:33:02.614Z,31.97
2018-12-20T00:35:31.531Z,31.83
2018-12-20T00:38:00.457Z,30.83
2018-12-20T00:40:29.605Z,30.93
2018-12-20T00:42:58.508Z,31.40
2018-12-20T00:45:27.492Z,31.47
2018-12-20T00:47:56.553Z,29.87
2018-12-20T00:50:26.388Z,31.50
2018-12-20T00:52:55.805Z,29.03
2018-12-20T00:55:24.903Z,28.97
2018-12-20T00:57:53.948Z,29.10
2018-12-20T01:00:22.881Z,28.27
2018-12-20T01:02:55.353Z,29.40
2018-12-20T01:05:23.088Z,30.17
2018-12-20T01:07:52.168Z,29.63
2018-12-20T01:10:21.062Z,28.77
2018-12-20T01:12:49.920Z,29.00
2018-12-20T01:15:18.952Z,30.10
2018-12-20T01:17:47.861Z,30.13
2018-12-20T01:20:16.734Z,28.10
2018-12-20T01:22:45.710Z,30.13
2018-12-20T01:25:14.779Z,27.33
2018-12-20T01:27:43.689Z,27.30
2018-12-20T01:30:12.653Z,28.60
2018-12-20T01:32:41.704Z,27.23
2018-12-20T01:35:10.657Z,29.07
2018-12-20T01:37:39.558Z,30.77
2018-12-20T01:40:08.533Z,26.90
2018-12-20T01:42:37.475Z,28.20
2018-12-20T01:45:06.671Z,26.00
2018-12-20T01:47:35.559Z,28.30
2018-12-20T01:50:05.621Z,30.30
2018-12-20T01:52:34.732Z,30.03
2018-12-20T01:55:03.803Z,26.37
2018-12-20T01:57:32.916Z,27.83
2018-12-20T02:00:02.115Z,28.27
2018-12-20T02:02:31.165Z,27.23
2018-12-20T02:05:00.126Z,28.13
2018-12-20T02:07:29.436Z,27.27
2018-12-20T02:09:58.841Z,27.43
2018-12-20T02:12:27.804Z,28.23
2018-12-20T02:15:01.601Z,27.90
2018-12-20T02:17:27.815Z,27.80
2018-12-20T02:19:56.773Z,27.33
2018-12-20T02:22:25.681Z,27.23
2018-12-20T02:24:54.561Z,27.10
2018-12-20T02:27:23.713Z,28.03
2018-12-20T02:29:52.744Z,27.07
2018-12-20T02:32:21.846Z,26.57
2018-12-20T02:34:51.941Z,28.20
2018-12-20T02:37:20.851Z,27.03
2018-12-20T02:39:49.870Z,28.47
2018-12-20T02:42:18.906Z,26.97
2018-12-20T02:44:48.128Z,28.23
2018-12-20T02:47:17.220Z,28.90
2018-12-20T02:49:46.474Z,27.27
2018-12-20T02:52:15.541Z,27.20
2018-12-20T02:54:44.532Z,25.43
2018-12-20T02:57:13.638Z,26.13
2018-12-20T02:59:42.587Z,27.03
2018-12-20T03:02:11.585Z,25.57
2018-12-20T03:04:40.610Z,26.50
2018-12-20T03:07:09.506Z,25.57
2018-12-20T03:09:38.435Z,26.60
2018-12-20T03:12:07.314Z,25.43
2018-12-20T03:14:36.212Z,24.50
2018-12-20T03:17:05.261Z,26.43
2018-12-20T03:19:34.246Z,23.43
2018-12-20T03:22:03.317Z,24.80
2018-12-20T03:24:32.367Z,26.73
2018-12-20T03:27:01.548Z,24.33
2018-12-20T03:29:31.001Z,25.03
2018-12-20T03:32:00.179Z,26.90
2018-12-20T03:34:29.220Z,29.77
2018-12-20T03:36:58.147Z,27.23
2018-12-20T03:39:27.078Z,26.60
2018-12-20T03:41:56.271Z,26.93
2018-12-20T03:44:25.131Z,24.70
2018-12-20T03:46:53.986Z,24.37
2018-12-20T03:49:23.088Z,24.33
2018-12-20T03:51:52.066Z,25.70
2018-12-20T03:54:21.242Z,25.03
2018-12-20T03:56:50.340Z,26.13
2018-12-20T03:59:19.324Z,25.83
2018-12-20T04:01:48.242Z,27.20
2018-12-20T04:04:17.292Z,25.13
2018-12-20T04:06:46.395Z,25.23
2018-12-20T04:09:15.615Z,26.73
2018-12-20T04:11:44.536Z,26.90
2018-12-20T04:14:13.496Z,25.67
2018-12-20T04:16:42.599Z,25.27
2018-12-20T04:19:11.627Z,24.37
2018-12-20T04:21:40.515Z,26.17
2018-12-20T04:24:09.722Z,27.60
2018-12-20T04:26:38.697Z,26.60
2018-12-20T04:29:07.582Z,27.20
2018-12-20T04:31:36.577Z,25.47
2018-12-20T04:34:05.506Z,24.97
2018-12-20T04:36:34.446Z,26.93
2018-12-20T04:39:04.826Z,26.17
2018-12-20T04:41:33.815Z,27.07
2018-12-20T04:44:02.732Z,28.67
2018-12-20T04:46:31.773Z,29.43
2018-12-20T04:49:00.890Z,27.50
2018-12-20T04:51:30.052Z,26.37
2018-12-20T04:53:59.080Z,26.20
2018-12-20T04:56:28.515Z,27.60
2018-12-20T04:58:57.767Z,28.30
2018-12-20T05:01:26.990Z,30.07
2018-12-20T05:03:56.104Z,27.50
2018-12-20T05:06:25.345Z,25.00
2018-12-20T05:08:54.495Z,26.17
2018-12-20T05:11:23.902Z,26.50
2018-12-20T05:13:53.381Z,26.87
2018-12-20T05:16:22.642Z,25.60
2018-12-20T05:18:51.742Z,25.40
2018-12-20T05:21:20.803Z,27.30
2018-12-20T05:23:49.730Z,25.97
2018-12-20T05:26:18.734Z,26.10
2018-12-20T05:28:47.902Z,25.53
2018-12-20T05:31:17.746Z,26.53
2018-12-20T05:33:46.941Z,28.23
2018-12-20T05:36:16.810Z,28.27
2018-12-20T05:38:46.106Z,36.93
2018-12-20T05:41:16.336Z,38.87
2018-12-20T05:43:45.422Z,31.97
2018-12-20T05:46:14.448Z,31.57
2018-12-20T05:48:43.694Z,29.17
2018-12-20T05:51:12.710Z,33.90
2018-12-20T05:53:41.671Z,32.50
2018-12-20T05:56:10.703Z,38.17
2018-12-20T05:58:39.735Z,35.00
2018-12-20T06:01:08.829Z,37.50
2018-12-20T06:03:38.357Z,34.70
2018-12-20T06:06:07.221Z,39.60
2018-12-20T06:08:36.227Z,32.13
2018-12-20T06:11:05.179Z,37.60
2018-12-20T06:13:34.251Z,33.07
2018-12-20T06:16:03.518Z,34.63
2018-12-20T06:18:32.448Z,27.47
2018-12-20T06:21:02.768Z,41.37
2018-12-20T06:23:31.853Z,33.77
2018-12-20T06:26:00.843Z,34.17
2018-12-20T06:28:29.966Z,37.30
2018-12-20T06:30:59.314Z,34.90
2018-12-20T06:33:28.355Z,31.67
2018-12-20T06:35:57.259Z,35.13
2018-12-20T06:38:26.264Z,32.90
2018-12-20T06:40:55.167Z,23.97
2018-12-20T06:43:24.021Z,24.67
2018-12-20T06:45:52.915Z,30.80
2018-12-20T06:48:21.790Z,24.77
2018-12-20T06:50:50.703Z,24.37
2018-12-20T06:53:19.698Z,27.17
2018-12-20T06:55:48.566Z,29.03
2018-12-20T06:58:17.463Z,27.30
2018-12-20T07:00:46.404Z,30.17
2018-12-20T07:03:15.299Z,27.33
2018-12-20T07:05:44.209Z,26.27
2018-12-20T07:08:13.158Z,26.40
2018-12-20T07:10:42.086Z,29.90
2018-12-20T07:13:10.960Z,32.50
2018-12-20T07:15:39.862Z,29.20
2018-12-20T07:18:08.746Z,31.43
2018-12-20T07:20:38.123Z,37.93
2018-12-20T07:23:07.195Z,27.70
2018-12-20T07:25:36.158Z,34.63
2018-12-20T07:28:05.451Z,35.03
2018-12-20T07:30:34.438Z,27.60
2018-12-20T07:33:03.434Z,33.23
2018-12-20T07:35:32.355Z,36.97
2018-12-20T07:38:01.298Z,42.77
2018-12-20T07:40:30.254Z,31.47
2018-12-20T07:42:59.256Z,26.60
2018-12-20T07:45:28.179Z,37.73
2018-12-20T07:47:57.085Z,32.93
2018-12-20T07:50:26.006Z,32.67
2018-12-20T07:52:54.971Z,32.47
2018-12-20T07:55:23.892Z,33.13
2018-12-20T07:57:52.765Z,26.67
2018-12-20T08:00:21.698Z,30.53
2018-12-20T08:02:50.568Z,29.17
2018-12-20T08:05:19.416Z,35.23
2018-12-20T08:07:48.326Z,33.93
2018-12-20T08:10:17.195Z,27.63
2018-12-20T08:12:46.123Z,28.43
2018-12-20T08:15:15.051Z,29.97
2018-12-20T08:17:43.931Z,30.53
2018-12-20T08:20:12.861Z,32.13
2018-12-20T08:22:41.850Z,30.87
2018-12-20T08:25:10.807Z,33.50
2018-12-20T08:27:39.675Z,32.80
2018-12-20T08:30:09.304Z,30.60
2018-12-20T08:32:38.390Z,29.23
2018-12-20T08:35:07.360Z,28.33
2018-12-20T08:37:36.273Z,32.00
2018-12-20T08:40:05.906Z,31.13
2018-12-20T08:42:34.885Z,30.43
2018-12-20T08:45:04.446Z,32.90
2018-12-20T08:47:33.395Z,30.83
2018-12-20T08:50:02.310Z,30.27
2018-12-20T08:52:31.265Z,27.93
2018-12-20T08:55:00.219Z,28.77
2018-12-20T08:57:29.087Z,30.03
2018-12-20T08:59:58.017Z,29.87
2018-12-20T09:02:26.952Z,29.43
2018-12-20T09:04:55.970Z,32.53
2018-12-20T09:07:24.860Z,33.17
2018-12-20T09:09:53.816Z,30.03
2018-12-20T09:12:22.706Z,29.50
2018-12-20T09:14:52.410Z,29.53
2018-12-20T09:17:21.330Z,29.33
2018-12-20T09:19:50.255Z,28.63
2018-12-20T09:22:19.135Z,29.33
2018-12-20T09:24:48.060Z,30.73
2018-12-20T09:27:16.987Z,30.87
2018-12-20T09:29:45.838Z,30.77
2018-12-20T09:32:14.794Z,30.27
2018-12-20T09:34:43.766Z,31.80
2018-12-20T09:37:12.610Z,30.83
2018-12-20T09:39:41.506Z,32.03
2018-12-20T09:42:10.451Z,30.53
2018-12-20T09:44:39.366Z,32.10
2018-12-20T09:47:14.217Z,30.73
2018-12-20T09:49:43.177Z,31.17
2018-12-20T09:52:14.510Z,32.07
2018-12-20T09:54:43.648Z,31.87
2018-12-20T09:57:12.603Z,30.63
2018-12-20T09:59:41.835Z,31.10
2018-12-20T10:02:11.059Z,31.47
2018-12-20T10:04:39.969Z,31.10
2018-12-20T10:07:09.077Z,29.60
2018-12-20T10:09:38.269Z,30.47
2018-12-20T10:12:07.867Z,32.10
2018-12-20T10:14:36.858Z,31.33
2018-12-20T10:17:05.743Z,31.23
2018-12-20T10:19:34.741Z,30.77
2018-12-20T10:22:03.743Z,31.47
2018-12-20T10:24:32.745Z,30.63
2018-12-20T10:27:01.648Z,31.33
2018-12-20T10:29:30.755Z,31.10
2018-12-20T10:32:00.422Z,31.97
2018-12-20T10:34:29.410Z,31.73
2018-12-20T10:36:58.403Z,33.67
2018-12-20T10:39:27.427Z,32.13
2018-12-20T10:41:56.319Z,32.57
2018-12-20T10:44:25.316Z,33.77
2018-12-20T10:46:56.367Z,33.17
2018-12-20T10:49:25.360Z,37.60
2018-12-20T10:51:54.298Z,33.87
2018-12-20T10:54:23.374Z,33.50
2018-12-20T10:56:52.411Z,34.83
2018-12-20T10:59:21.426Z,34.53
2018-12-20T11:01:54.583Z,35.97
2018-12-20T11:04:31.272Z,34.50
2018-12-20T11:07:05.370Z,36.67
2018-12-20T11:09:39.509Z,35.03
2018-12-20T11:12:08.783Z,39.70
2018-12-20T11:14:38.122Z,41.50
2018-12-20T11:17:07.157Z,37.47
2018-12-20T11:19:37.159Z,33.60
2018-12-20T11:22:06.155Z,31.67
2018-12-20T11:24:35.171Z,33.67
2018-12-20T11:27:04.199Z,33.67
2018-12-20T11:29:33.180Z,33.47
2018-12-20T11:32:02.230Z,33.17
2018-12-20T11:34:31.501Z,33.20
2018-12-20T11:37:00.569Z,32.10
2018-12-20T11:39:29.620Z,34.13
2018-12-20T11:41:58.647Z,34.53
2018-12-20T11:44:29.513Z,33.93
2018-12-20T11:46:58.522Z,35.80
2018-12-20T11:49:27.976Z,34.77
2018-12-20T11:51:56.971Z,33.07
2018-12-20T11:54:25.976Z,32.10
2018-12-20T11:56:55.940Z,32.13
2018-12-20T11:59:24.894Z,35.83
2018-12-20T12:01:53.865Z,34.63
2018-12-20T12:04:22.886Z,32.37
2018-12-20T12:06:51.953Z,33.73
2018-12-20T12:09:20.988Z,33.50
2018-12-20T12:11:50.342Z,34.13
2018-12-20T12:14:19.942Z,33.00
2018-12-20T12:16:48.911Z,34.23
2018-12-20T12:19:18.136Z,33.93
2018-12-20T12:21:47.078Z,34.20
2018-12-20T12:24:15.985Z,34.27
2018-12-20T12:26:44.934Z,35.17
2018-12-20T12:29:13.852Z,34.97
2018-12-20T12:31:42.860Z,34.73
2018-12-20T12:34:11.989Z,34.77
2018-12-20T12:36:41.066Z,35.10
2018-12-20T12:39:10.043Z,36.20
2018-12-20T12:41:39.034Z,37.50
2018-12-20T12:44:09.409Z,34.33
2018-12-20T12:46:38.619Z,35.57
2018-12-20T12:49:07.609Z,33.07
2018-12-20T12:51:36.596Z,33.13
2018-12-20T12:54:05.555Z,31.53
2018-12-20T12:56:35.634Z,32.57
2018-12-20T12:59:04.837Z,32.60
2018-12-20T13:01:33.784Z,33.33
2018-12-20T13:04:02.806Z,31.53
2018-12-20T13:06:31.782Z,32.33
2018-12-20T13:09:00.717Z,32.17
2018-12-20T13:11:29.786Z,35.23
2018-12-20T13:13:58.721Z,36.43
2018-12-20T13:16:27.710Z,36.70
2018-12-20T13:18:57.407Z,36.20
2018-12-20T13:21:26.598Z,36.47
2018-12-20T13:23:55.627Z,36.67
2018-12-20T13:26:24.640Z,37.80
2018-12-20T13:28:53.559Z,39.73
2018-12-20T13:31:22.624Z,39.10
2018-12-20T13:33:51.573Z,38.20
2018-12-20T13:36:20.548Z,37.70
2018-12-20T13:38:49.550Z,36.73
2018-12-20T13:41:18.560Z,42.63
2018-12-20T13:43:47.488Z,42.30
2018-12-20T13:46:16.450Z,39.80
2018-12-20T13:48:45.460Z,39.07
2018-12-20T13:51:14.432Z,40.23
2018-12-20T13:53:43.448Z,41.77
2018-12-20T13:56:12.533Z,40.70
2018-12-20T13:58:41.528Z,39.57
2018-12-20T14:01:10.565Z,43.20
2018-12-20T14:03:39.591Z,44.17
2018-12-20T14:06:08.679Z,46.93
2018-12-20T14:08:37.639Z,59.33
2018-12-20T14:11:06.677Z,50.53
2018-12-20T14:13:35.715Z,46.30
2018-12-20T14:16:05.522Z,45.47
2018-12-20T14:18:34.710Z,51.23
2018-12-20T14:21:03.741Z,49.07
2018-12-20T14:23:32.674Z,48.60
2018-12-20T14:26:01.650Z,54.83
2018-12-20T14:28:30.705Z,50.70
2018-12-20T14:30:59.822Z,51.00
2018-12-20T14:33:28.818Z,55.20
2018-12-20T14:35:57.784Z,55.33
2018-12-20T14:38:26.695Z,49.53
2018-12-20T14:40:55.639Z,53.73
2018-12-20T14:43:24.563Z,55.90
2018-12-20T14:45:53.561Z,52.10
2018-12-20T14:48:29.009Z,49.27
2018-12-20T14:50:58.461Z,46.07
2018-12-20T14:53:28.786Z,52.87
2018-12-20T14:55:57.691Z,52.30
2018-12-20T14:58:26.776Z,57.67
2018-12-20T15:00:56.067Z,53.60
2018-12-20T15:03:25.030Z,50.33
2018-12-20T15:05:54.042Z,49.87
2018-12-20T15:08:22.937Z,47.23
2018-12-20T15:10:51.825Z,49.63
2018-12-20T15:13:20.775Z,48.43
2018-12-20T15:15:49.719Z,47.80
2018-12-20T15:18:18.785Z,48.80
2018-12-20T15:20:47.782Z,49.90
2018-12-20T15:23:16.781Z,44.50
2018-12-20T15:25:45.770Z,47.73
2018-12-20T15:28:16.276Z,48.27
2018-12-20T15:30:45.287Z,45.07
2018-12-20T15:33:14.243Z,43.10
2018-12-20T15:35:43.231Z,43.23
2018-12-20T15:38:12.206Z,43.10
2018-12-20T15:40:41.215Z,48.17
2018-12-20T15:43:10.170Z,47.00
2018-12-20T15:45:39.111Z,46.03
2018-12-20T15:48:08.099Z,49.70
2018-12-20T15:50:37.071Z,47.60
2018-12-20T15:53:06.118Z,47.93
2018-12-20T15:55:35.097Z,46.70
2018-12-20T15:58:04.049Z,45.87
2018-12-20T16:00:32.978Z,46.43
2018-12-20T16:03:01.977Z,49.40
2018-12-20T16:05:30.934Z,47.03
2018-12-20T16:08:05.091Z,46.77
2018-12-20T16:10:34.039Z,48.20
2018-12-20T16:13:03.811Z,44.67
2018-12-20T16:15:32.864Z,48.27
2018-12-20T16:18:01.890Z,46.27
2018-12-20T16:20:30.874Z,45.37
2018-12-20T16:22:59.898Z,45.20
2018-12-20T16:25:28.963Z,45.63
2018-12-20T16:27:59.380Z,44.90
2018-12-20T16:30:28.746Z,45.43
2018-12-20T16:32:58.062Z,48.13
2018-12-20T16:38:27.494Z,46.07
2018-12-20T16:41:04.262Z,46.93
2018-12-20T16:43:33.214Z,45.83
2018-12-20T16:46:14.070Z,44.83
2018-12-20T16:48:47.078Z,43.50
2018-12-20T16:51:20.985Z,43.73
2018-12-20T16:53:50.407Z,42.67
2018-12-20T16:56:19.376Z,44.43
2018-12-20T16:58:48.283Z,44.13
2018-12-20T17:01:17.257Z,44.13
2018-12-20T17:03:46.190Z,42.33
2018-12-20T17:06:15.138Z,45.07
2018-12-20T17:08:48.041Z,45.60
2018-12-20T17:11:15.098Z,42.97
2018-12-20T17:13:44.400Z,44.30
2018-12-20T17:16:13.327Z,41.67
2018-12-20T17:18:42.282Z,44.50
2018-12-20T17:21:11.223Z,45.40
2018-12-20T17:23:40.276Z,44.93
2018-12-20T17:26:09.248Z,45.50
2018-12-20T17:28:38.295Z,47.00
2018-12-20T17:31:07.399Z,44.43
2018-12-20T17:33:36.334Z,50.93
2018-12-20T17:36:05.305Z,50.57
2018-12-20T17:38:34.410Z,47.07
2018-12-20T17:41:03.361Z,45.53
2018-12-20T17:43:32.338Z,47.17
2018-12-20T17:46:01.294Z,49.73
2018-12-20T17:48:30.207Z,48.67
2018-12-20T17:50:59.146Z,55.87
2018-12-20T17:53:28.186Z,58.23
2018-12-20T17:55:57.307Z,50.60
2018-12-20T17:58:26.260Z,50.43
2018-12-20T18:00:55.182Z,46.73
2018-12-20T18:03:24.150Z,49.63
2018-12-20T18:05:53.212Z,49.07
2018-12-20T18:08:22.191Z,49.67
2018-12-20T18:10:51.188Z,47.30
2018-12-20T18:13:20.195Z,51.00
2018-12-20T18:15:49.129Z,45.60
2018-12-20T18:18:18.241Z,46.37
2018-12-20T18:20:47.314Z,47.13
2018-12-20T18:23:16.753Z,46.33
2018-12-20T18:25:45.997Z,47.57
2018-12-20T18:28:15.259Z,49.27
2018-12-20T18:30:44.522Z,49.50
2018-12-20T18:33:19.268Z,55.20
2018-12-20T18:35:48.523Z,48.43
2018-12-20T18:38:17.643Z,51.20
2018-12-20T18:40:48.257Z,58.63
2018-12-20T18:43:22.655Z,51.07
2018-12-20T18:45:51.897Z,51.43
2018-12-20T18:48:21.505Z,50.90
2018-12-20T18:50:50.548Z,52.03
2018-12-20T18:53:19.832Z,48.57
2018-12-20T18:55:48.916Z,50.27
2018-12-20T18:58:23.766Z,47.87
2018-12-20T19:00:52.792Z,49.63
2018-12-20T19:03:22.247Z,47.63
2018-12-20T19:05:56.213Z,49.13
2018-12-20T19:08:26.685Z,48.07
2018-12-20T19:10:55.901Z,46.33
2018-12-20T19:13:25.031Z,48.23
2018-12-20T19:15:54.211Z,46.70
2018-12-20T19:18:23.319Z,49.20
2018-12-20T19:20:52.396Z,49.67
2018-12-20T19:23:21.377Z,48.60
2018-12-20T19:25:50.403Z,49.77
2018-12-20T19:28:19.358Z,48.77
2018-12-20T19:30:51.785Z,48.33
2018-12-20T19:33:20.914Z,46.57
2018-12-20T19:35:50.558Z,52.17
2018-12-20T19:38:20.579Z,55.50
2018-12-20T19:40:49.920Z,55.60
2018-12-20T19:43:19.061Z,51.60
2018-12-20T19:45:47.995Z,50.40
2018-12-20T19:48:16.886Z,55.80
2018-12-20T19:50:45.823Z,58.07
2018-12-20T19:53:14.755Z,55.60
2018-12-20T19:55:43.697Z,52.80
2018-12-20T19:58:12.685Z,55.43
2018-12-20T20:00:41.799Z,53.60
2018-12-20T20:03:10.853Z,55.73
2018-12-20T20:05:39.806Z,52.83
2018-12-20T20:08:09.054Z,52.67
2018-12-20T20:10:38.221Z,52.90
2018-12-20T20:13:07.230Z,54.47
2018-12-20T20:15:36.451Z,51.83
2018-12-20T20:18:05.551Z,53.30
2018-12-20T20:20:34.628Z,54.17
2018-12-20T20:23:03.762Z,55.93
2018-12-20T20:25:32.794Z,52.33
2018-12-20T20:28:01.751Z,55.00
2018-12-20T20:30:30.694Z,49.83
2018-12-20T20:32:59.621Z,56.30
2018-12-20T20:35:28.481Z,54.97
2018-12-20T20:37:57.350Z,51.07
2018-12-20T20:40:46.068Z,51.93
2018-12-20T20:43:15.004Z,50.23
2018-12-20T20:45:43.889Z,51.47
2018-12-20T20:48:13.064Z,49.57
2018-12-20T20:50:41.987Z,52.47
2018-12-20T20:53:12.219Z,50.20
2018-12-20T20:55:42.174Z,51.23
2018-12-20T20:58:11.268Z,52.57
2018-12-20T21:00:40.166Z,54.33
2018-12-20T21:03:09.168Z,53.00
2018-12-20T21:05:38.209Z,51.37
2018-12-20T21:08:07.805Z,50.20
2018-12-20T21:10:36.789Z,54.60
2018-12-20T21:13:05.786Z,53.03
2018-12-20T21:15:34.826Z,52.27
2018-12-20T21:18:03.942Z,53.07
2018-12-20T21:20:32.878Z,56.50
2018-12-20T21:23:01.884Z,53.83
2018-12-20T21:25:30.906Z,55.03
2018-12-20T21:27:59.989Z,53.57
2018-12-20T21:30:29.147Z,53.77
2018-12-20T21:32:58.169Z,56.07
2018-12-20T21:35:27.284Z,54.33
2018-12-20T21:37:56.177Z,57.13
2018-12-20T21:40:25.094Z,56.47
2018-12-20T21:42:54.095Z,55.33
2018-12-20T21:45:23.147Z,53.67
2018-12-20T21:47:52.077Z,58.07
2018-12-20T21:50:21.210Z,55.87
2018-12-20T21:52:50.090Z,55.90
2018-12-20T21:55:19.041Z,54.00
2018-12-20T21:57:47.946Z,56.40
2018-12-20T22:00:17.167Z,55.90
2018-12-20T22:02:46.446Z,53.07
2018-12-20T22:05:15.355Z,54.23
2018-12-20T22:07:44.230Z,53.43
2018-12-20T22:10:13.147Z,53.67
2018-12-20T22:12:42.229Z,52.67
2018-12-20T22:15:11.855Z,55.27
2018-12-20T22:17:40.917Z,53.43
2018-12-20T22:20:09.950Z,53.60
2018-12-20T22:22:39.173Z,54.70
2018-12-20T22:25:08.385Z,54.83
2018-12-20T22:27:37.322Z,55.80
2018-12-20T22:30:08.770Z,54.60
2018-12-20T22:32:38.214Z,56.33
2018-12-20T22:35:07.589Z,56.07
2018-12-20T22:37:36.479Z,52.93
2018-12-20T22:40:06.854Z,55.03
2018-12-20T22:42:35.697Z,54.87
2018-12-20T22:45:06.414Z,53.53
2018-12-20T22:47:35.354Z,55.27
2018-12-20T22:50:04.767Z,56.30
2018-12-20T22:52:33.749Z,57.83
2018-12-20T22:55:02.630Z,57.87
2018-12-20T22:57:31.707Z,57.87
2018-12-20T23:00:00.610Z,56.97
2018-12-20T23:02:29.515Z,53.80
2018-12-20T23:04:58.463Z,56.67
2018-12-20T23:07:27.345Z,55.40
2018-12-20T23:09:56.194Z,54.07
2018-12-20T23:12:25.253Z,56.30
2018-12-20T23:14:54.133Z,61.73
2018-12-20T23:17:23.039Z,59.33
2018-12-20T23:19:51.973Z,55.30
2018-12-20T23:22:20.817Z,56.30
2018-12-20T23:24:49.700Z,54.13
2018-12-20T23:27:18.603Z,52.97
2018-12-20T23:29:47.475Z,57.10
2018-12-20T23:32:16.406Z,56.27
2018-12-20T23:34:45.256Z,56.10
2018-12-20T23:37:14.121Z,55.93
2018-12-20T23:39:43.053Z,57.07
2018-12-20T23:42:11.951Z,56.80
2018-12-20T23:44:40.850Z,54.33
2018-12-20T23:47:09.850Z,54.03
2018-12-20T23:49:40.000Z,54.67
2018-12-20T23:52:09.111Z,56.40
2018-12-20T23:54:38.305Z,54.33
2018-12-20T23:57:07.197Z,54.40
2018-12-20T23:59:36.106Z,56.33
